Time;durP1;ratioP1;P1;durP2;ratioP2;P2;SDS_P1;SDS_P2;PMS_P1;PMS_P2;Temp;Humidity;BMP_temperature;BMP_pressure;BME280_temperature;BME280_humidity;BME280_pressure;Samples;Min_cycle;Max_cycle;Signal;HPM_P1;HPM_P2
2021/10/21 00:03:12;;;;;;;11.20;7.88;;;;;;;;;;5096495;23;20317;-61
2021/10/21 00:05:38;;;;;;;11.98;8.32;;;;;;;;;;4984928;28;20113;-61
2021/10/21 00:08:03;;;;;;;9.80;7.80;;;;;;;;;;4985490;28;20029;-61
2021/10/21 00:10:28;;;;;;;12.07;8.10;;;;;;;;;;4985062;28;20022;-61
2021/10/21 00:12:53;;;;;;;11.53;7.70;;;;;;;;;;4988566;28;20022;-61
2021/10/21 00:15:19;;;;;;;10.77;7.75;;;;;;;;;;4988413;28;20327;-61
2021/10/21 00:17:44;;;;;;;9.77;7.30;;;;;;;;;;4988553;28;20030;-61
2021/10/21 00:20:10;;;;;;;11.40;7.87;;;;;;;;;;4988332;28;20328;-61
2021/10/21 00:22:35;;;;;;;10.30;7.93;;;;;;;;;;4988315;28;20262;-62
2021/10/21 00:25:01;;;;;;;11.82;7.80;;;;;;;;;;4986679;28;20035;-61
2021/10/21 00:27:26;;;;;;;11.30;7.82;;;;;;;;;;4988434;28;20033;-62
2021/10/21 00:29:51;;;;;;;10.40;8.10;;;;;;;;;;4988228;28;20504;-62
2021/10/21 00:32:17;;;;;;;10.97;7.93;;;;;;;;;;4988035;28;20778;-61
2021/10/21 00:34:42;;;;;;;11.63;7.73;;;;;;;;;;4986836;28;20523;-61
2021/10/21 00:37:07;;;;;;;10.45;8.10;;;;;;;;;;4987421;28;20731;-61
2021/10/21 00:39:32;;;;;;;11.38;8.60;;;;;;;;;;4987754;28;20503;-63
2021/10/21 00:41:58;;;;;;;10.77;7.80;;;;;;;;;;4988066;28;20030;-61
2021/10/21 00:44:23;;;;;;;10.27;7.85;;;;;;;;;;4986453;28;20025;-61
2021/10/21 00:46:48;;;;;;;9.47;7.17;;;;;;;;;;4987918;28;20520;-61
2021/10/21 00:49:13;;;;;;;11.57;8.00;;;;;;;;;;4987861;28;20023;-62
2021/10/21 00:51:39;;;;;;;11.35;8.10;;;;;;;;;;4987699;28;20032;-61
2021/10/21 00:54:04;;;;;;;10.02;7.90;;;;;;;;;;4987673;28;20018;-61
2021/10/21 00:56:30;;;;;;;10.40;7.55;;;;;;;;;;4987832;28;20101;-61
2021/10/21 00:58:55;;;;;;;10.23;8.00;;;;;;;;;;4987620;28;20493;-62
2021/10/21 01:01:21;;;;;;;10.13;8.25;;;;;;;;;;4987689;28;20571;-61
2021/10/21 01:03:46;;;;;;;10.70;7.90;;;;;;;;;;4986457;28;20046;-61
2021/10/21 01:06:12;;;;;;;9.88;7.70;;;;;;;;;;4987761;28;20707;-62
2021/10/21 01:08:37;;;;;;;10.13;7.53;;;;;;;;;;4987399;28;20110;-62
2021/10/21 01:11:02;;;;;;;9.80;7.07;;;;;;;;;;4985887;28;20038;-61
2021/10/21 01:13:27;;;;;;;9.75;7.15;;;;;;;;;;4987537;28;20250;-61
2021/10/21 01:16:06;;;;;;;10.77;7.70;;;;;;;;;;4987621;28;20034;-62
2021/10/21 01:18:32;;;;;;;9.98;7.38;;;;;;;;;;4987593;28;20076;-62
2021/10/21 01:20:58;;;;;;;9.68;7.53;;;;;;;;;;4987834;28;20023;-61
2021/10/21 01:23:23;;;;;;;8.68;6.97;;;;;;;;;;4987305;28;20031;-61
2021/10/21 01:25:48;;;;;;;9.20;7.70;;;;;;;;;;4987175;28;20018;-61
2021/10/21 01:28:13;;;;;;;10.80;7.83;;;;;;;;;;4987183;28;21012;-61
2021/10/21 01:30:39;;;;;;;9.40;7.53;;;;;;;;;;4986901;28;20285;-62
2021/10/21 01:33:04;;;;;;;9.98;7.57;;;;;;;;;;4987168;28;20014;-61
2021/10/21 01:35:29;;;;;;;10.02;7.40;;;;;;;;;;4987113;28;20045;-62
2021/10/21 01:37:55;;;;;;;9.38;7.50;;;;;;;;;;4985044;28;20022;-61
2021/10/21 01:40:20;;;;;;;10.93;7.93;;;;;;;;;;4985929;28;20088;-61
2021/10/21 01:42:45;;;;;;;10.38;7.25;;;;;;;;;;4987091;28;20041;-61
2021/10/21 01:45:21;;;;;;;9.82;7.32;;;;;;;;;;4986511;28;20114;-61
2021/10/21 01:47:46;;;;;;;10.13;7.70;;;;;;;;;;4986911;28;20045;-61
2021/10/21 01:50:12;;;;;;;9.45;7.53;;;;;;;;;;4986865;28;20068;-61
2021/10/21 01:52:37;;;;;;;10.90;7.53;;;;;;;;;;5001473;28;20033;-61
2021/10/21 01:55:03;;;;;;;10.10;7.77;;;;;;;;;;4986069;28;20034;-61
2021/10/21 01:57:28;;;;;;;11.23;7.40;;;;;;;;;;4986749;28;20265;-61
2021/10/21 01:59:53;;;;;;;10.55;7.10;;;;;;;;;;4986739;28;20543;-61
2021/10/21 02:02:19;;;;;;;9.40;7.10;;;;;;;;;;4986083;28;20668;-62
2021/10/21 02:04:44;;;;;;;9.10;6.90;;;;;;;;;;5001143;28;20832;-62
2021/10/21 02:07:09;;;;;;;10.45;7.68;;;;;;;;;;4986613;28;20484;-62
2021/10/21 02:09:34;;;;;;;9.63;7.10;;;;;;;;;;5001175;28;20022;-61
2021/10/21 02:12:00;;;;;;;10.00;7.45;;;;;;;;;;4986211;28;20089;-62
2021/10/21 02:14:25;;;;;;;9.82;7.38;;;;;;;;;;4986086;28;20022;-62
2021/10/21 02:16:50;;;;;;;9.67;7.20;;;;;;;;;;4988833;28;20044;-62
2021/10/21 02:19:16;;;;;;;10.00;7.40;;;;;;;;;;5002884;28;20025;-62
2021/10/21 02:21:41;;;;;;;9.88;6.90;;;;;;;;;;5005234;28;20257;-61
2021/10/21 02:24:06;;;;;;;10.37;7.50;;;;;;;;;;5005475;28;20018;-62
2021/10/21 02:26:31;;;;;;;8.37;7.20;;;;;;;;;;5005783;28;20838;-62
2021/10/21 02:28:56;;;;;;;9.87;7.00;;;;;;;;;;5005689;28;20631;-62
2021/10/21 02:31:22;;;;;;;9.53;7.17;;;;;;;;;;5005671;28;20261;-62
2021/10/21 02:33:47;;;;;;;10.77;8.00;;;;;;;;;;5005094;28;20026;-62
2021/10/21 02:36:13;;;;;;;9.00;6.97;;;;;;;;;;5000054;28;20117;-62
2021/10/21 02:38:38;;;;;;;8.63;6.68;;;;;;;;;;4987799;28;20049;-61
2021/10/21 02:41:03;;;;;;;8.63;6.93;;;;;;;;;;4985830;28;20404;-61
2021/10/21 02:43:29;;;;;;;8.20;6.78;;;;;;;;;;4984381;28;20266;-62
2021/10/21 02:45:54;;;;;;;9.15;6.93;;;;;;;;;;4984146;28;20404;-63
2021/10/21 02:48:19;;;;;;;8.20;6.50;;;;;;;;;;4984662;28;20081;-61
2021/10/21 02:50:54;;;;;;;9.10;6.87;;;;;;;;;;4984969;28;20493;-61
2021/10/21 02:53:20;;;;;;;9.05;6.88;;;;;;;;;;4983693;28;20261;-62
2021/10/21 02:55:45;;;;;;;9.20;6.80;;;;;;;;;;4985174;28;20578;-62
2021/10/21 02:58:10;;;;;;;9.47;7.10;;;;;;;;;;4985051;28;20496;-62
2021/10/21 03:00:35;;;;;;;9.43;7.20;;;;;;;;;;4985223;28;20500;-62
2021/10/21 03:03:01;;;;;;;8.30;6.97;;;;;;;;;;4984857;28;20452;-61
2021/10/21 03:05:26;;;;;;;8.60;6.67;;;;;;;;;;4985077;28;20493;-62
2021/10/21 03:07:52;;;;;;;9.27;7.15;;;;;;;;;;4984877;28;20647;-61
2021/10/21 03:10:17;;;;;;;8.80;6.40;;;;;;;;;;4965530;28;20023;-62
2021/10/21 03:12:42;;;;;;;9.60;7.10;;;;;;;;;;4979538;28;20022;-62
2021/10/21 03:15:08;;;;;;;9.02;6.80;;;;;;;;;;5004881;28;20265;-62
2021/10/21 03:17:33;;;;;;;8.23;6.20;;;;;;;;;;5005047;28;20527;-62
2021/10/21 03:19:58;;;;;;;10.02;7.18;;;;;;;;;;5003337;28;20018;-62
2021/10/21 03:22:23;;;;;;;8.25;6.40;;;;;;;;;;5004941;28;20443;-62
2021/10/21 03:24:49;;;;;;;8.87;6.87;;;;;;;;;;5004658;28;20029;-61
2021/10/21 03:27:14;;;;;;;8.90;7.00;;;;;;;;;;5005003;28;20014;-62
2021/10/21 03:29:39;;;;;;;8.30;6.40;;;;;;;;;;5005032;28;20891;-62
2021/10/21 03:32:05;;;;;;;8.00;6.40;;;;;;;;;;5004646;28;20520;-62
2021/10/21 03:34:32;;;;;;;8.45;6.28;;;;;;;;;;5004669;28;20536;-61
2021/10/21 03:36:57;;;;;;;9.15;6.70;;;;;;;;;;4995109;28;20528;-62
2021/10/21 03:39:22;;;;;;;8.57;6.32;;;;;;;;;;5000409;28;20038;-62
2021/10/21 03:41:48;;;;;;;7.50;5.70;;;;;;;;;;4984913;28;20026;-62
2021/10/21 03:44:13;;;;;;;8.85;6.18;;;;;;;;;;4984971;28;20304;-62
2021/10/21 03:46:40;;;;;;;10.35;6.65;;;;;;;;;;4994639;28;20048;-63
2021/10/21 03:49:05;;;;;;;8.90;6.40;;;;;;;;;;4992081;28;20485;-62
2021/10/21 03:51:30;;;;;;;8.15;5.88;;;;;;;;;;4987967;28;20046;-62
2021/10/21 03:53:55;;;;;;;8.43;6.20;;;;;;;;;;4989569;28;20076;-62
2021/10/21 03:56:21;;;;;;;8.10;6.28;;;;;;;;;;4986578;28;20037;-61
2021/10/21 03:58:46;;;;;;;11.90;6.50;;;;;;;;;;4987844;28;20045;-61
2021/10/21 04:01:11;;;;;;;9.13;6.38;;;;;;;;;;4987642;28;20254;-62
2021/10/21 04:03:37;;;;;;;10.37;6.47;;;;;;;;;;4985355;28;20045;-62
2021/10/21 04:06:02;;;;;;;14.57;6.57;;;;;;;;;;4987597;28;20262;-62
2021/10/21 04:08:27;;;;;;;14.30;6.30;;;;;;;;;;4986824;28;20309;-61
2021/10/21 04:10:52;;;;;;;16.77;6.60;;;;;;;;;;4988945;28;20261;-62
2021/10/21 04:13:17;;;;;;;13.83;6.50;;;;;;;;;;4987241;28;20273;-61
2021/10/21 04:15:43;;;;;;;10.88;5.70;;;;;;;;;;4987509;28;20025;-62
2021/10/21 04:18:08;;;;;;;14.02;6.35;;;;;;;;;;4987454;28;20014;-62
2021/10/21 04:20:33;;;;;;;16.48;6.32;;;;;;;;;;4987329;28;20038;-62
2021/10/21 04:22:59;;;;;;;14.48;6.53;;;;;;;;;;4987077;28;20707;-62
2021/10/21 04:25:24;;;;;;;14.80;6.50;;;;;;;;;;4986412;28;20420;-62
2021/10/21 04:27:49;;;;;;;13.47;6.13;;;;;;;;;;4987360;28;20272;-62
2021/10/21 04:30:14;;;;;;;20.20;6.30;;;;;;;;;;4987464;28;20293;-63
2021/10/21 04:32:40;;;;;;;13.07;6.25;;;;;;;;;;4987831;28;20165;-62
2021/10/21 04:35:05;;;;;;;14.77;6.43;;;;;;;;;;4987324;28;20037;-62
2021/10/21 04:37:31;;;;;;;13.13;6.22;;;;;;;;;;4987224;28;20405;-62
2021/10/21 04:39:56;;;;;;;17.50;6.17;;;;;;;;;;4987148;28;20038;-62
2021/10/21 04:42:21;;;;;;;17.45;7.25;;;;;;;;;;4987091;28;20031;-62
2021/10/21 04:44:47;;;;;;;16.58;6.38;;;;;;;;;;4987002;28;20031;-62
2021/10/21 04:47:12;;;;;;;15.25;6.63;;;;;;;;;;4986986;28;20053;-63
2021/10/21 04:49:38;;;;;;;15.33;6.80;;;;;;;;;;4987574;28;20029;-62
2021/10/21 04:52:03;;;;;;;15.68;6.32;;;;;;;;;;4987417;28;20105;-62
2021/10/21 04:54:28;;;;;;;19.17;6.67;;;;;;;;;;4986591;28;20030;-61
2021/10/21 04:56:54;;;;;;;21.83;7.23;;;;;;;;;;4985215;28;20282;-61
2021/10/21 04:59:19;;;;;;;18.58;7.13;;;;;;;;;;4987124;28;20018;-61
2021/10/21 05:01:44;;;;;;;13.60;6.37;;;;;;;;;;4987318;28;20026;-61
2021/10/21 05:04:09;;;;;;;14.23;6.00;;;;;;;;;;4986463;28;20062;-61
2021/10/21 05:06:35;;;;;;;17.25;6.35;;;;;;;;;;4986898;28;20021;-61
2021/10/21 05:09:00;;;;;;;16.00;5.93;;;;;;;;;;4986552;28;20077;-61
2021/10/21 05:11:25;;;;;;;17.77;6.55;;;;;;;;;;4938177;28;20033;-62
2021/10/21 05:13:51;;;;;;;12.52;6.40;;;;;;;;;;4994678;28;20022;-62
2021/10/21 05:16:16;;;;;;;13.48;6.07;;;;;;;;;;5015785;28;20472;-62
2021/10/21 05:18:41;;;;;;;15.23;6.27;;;;;;;;;;4996142;28;20037;-62
2021/10/21 05:21:07;;;;;;;17.25;6.47;;;;;;;;;;4990391;28;20273;-61
2021/10/21 05:23:32;;;;;;;14.70;6.70;;;;;;;;;;5009314;28;20021;-62
2021/10/21 05:25:57;;;;;;;14.00;5.82;;;;;;;;;;5004955;28;20707;-61
2021/10/21 05:28:22;;;;;;;13.63;6.37;;;;;;;;;;5006150;28;20703;-60
2021/10/21 05:31:20;;;;;;;13.43;5.68;;;;;;;;;;5116874;27;20147;-62
2021/10/21 05:33:45;;;;;;;15.07;6.07;;;;;;;;;;5103357;28;20442;-61
2021/10/21 05:36:11;;;;;;;15.00;6.37;;;;;;;;;;5102106;28;20576;-62
2021/10/21 05:38:36;;;;;;;11.73;6.10;;;;;;;;;;5109504;28;20038;-62
2021/10/21 05:41:01;;;;;;;15.70;6.45;;;;;;;;;;5104791;28;20489;-61
2021/10/21 05:43:27;;;;;;;13.50;6.10;;;;;;;;;;5088763;28;20470;-62
2021/10/21 05:45:52;;;;;;;17.00;6.50;;;;;;;;;;5110413;28;20076;-61
2021/10/21 05:48:17;;;;;;;14.98;6.30;;;;;;;;;;5112963;28;20272;-62
2021/10/21 05:50:43;;;;;;;12.25;5.75;;;;;;;;;;5112110;28;20040;-62
2021/10/21 05:53:08;;;;;;;10.70;6.07;;;;;;;;;;5111801;28;20008;-62
2021/10/21 05:55:33;;;;;;;14.18;5.47;;;;;;;;;;5110645;28;20051;-62
2021/10/21 05:57:59;;;;;;;16.27;6.03;;;;;;;;;;5107379;28;20053;-61
2021/10/21 06:00:24;;;;;;;24.53;12.17;;;;;;;;;;5110738;28;20253;-62
2021/10/21 06:02:49;;;;;;;32.30;17.27;;;;;;;;;;5112820;27;20021;-63
2021/10/21 06:05:14;;;;;;;38.40;19.27;;;;;;;;;;5112622;28;20253;-62
2021/10/21 06:07:40;;;;;;;38.35;21.63;;;;;;;;;;5110712;28;20037;-62
2021/10/21 06:10:05;;;;;;;1320.00;999.90;;;;;;;;;;5109115;28;20512;-61
2021/10/21 06:12:30;;;;;;;881.85;716.83;;;;;;;;;;5105626;28;20352;-60
2021/10/21 06:14:56;;;;;;;810.50;705.03;;;;;;;;;;5102759;28;20023;-61
2021/10/21 06:17:23;;;;;;;1176.88;999.90;;;;;;;;;;5082657;28;20266;-62
2021/10/21 06:19:49;;;;;;;1286.63;999.90;;;;;;;;;;5101136;28;20118;-62
2021/10/21 06:22:18;;;;;;;1276.53;999.90;;;;;;;;;;5103973;28;20123;-62
2021/10/21 06:24:43;;;;;;;625.77;434.30;;;;;;;;;;5106804;28;20065;-63
2021/10/21 06:27:09;;;;;;;442.60;262.85;;;;;;;;;;5101864;28;20104;-62
2021/10/21 06:29:34;;;;;;;255.82;152.43;;;;;;;;;;5085781;28;20051;-63
2021/10/21 06:32:00;;;;;;;65.18;53.20;;;;;;;;;;5102643;28;20024;-62
2021/10/21 06:34:25;;;;;;;76.95;53.63;;;;;;;;;;5101211;28;20544;-60
2021/10/21 06:36:51;;;;;;;31.37;21.37;;;;;;;;;;5100654;28;20527;-61
2021/10/21 06:39:17;;;;;;;47.28;38.45;;;;;;;;;;5102601;28;20575;-61
2021/10/21 06:41:42;;;;;;;31.37;19.43;;;;;;;;;;5096232;28;20024;-61
2021/10/21 06:44:07;;;;;;;47.30;34.87;;;;;;;;;;5090280;28;20127;-61
2021/10/21 06:46:33;;;;;;;27.08;15.88;;;;;;;;;;5091771;28;20173;-61
2021/10/21 06:48:58;;;;;;;27.00;15.80;;;;;;;;;;5093162;28;20059;-61
2021/10/21 06:51:24;;;;;;;52.92;43.22;;;;;;;;;;5089450;28;20023;-61
2021/10/21 06:53:49;;;;;;;70.70;55.13;;;;;;;;;;5089292;28;20016;-62
2021/10/21 06:56:14;;;;;;;40.97;35.70;;;;;;;;;;5091429;28;20031;-62
2021/10/21 06:58:39;;;;;;;62.17;52.60;;;;;;;;;;5089405;28;20891;-62
2021/10/21 07:01:05;;;;;;;46.58;41.42;;;;;;;;;;5088468;28;20477;-62
2021/10/21 07:03:30;;;;;;;410.95;286.35;;;;;;;;;;5069259;28;20490;-63
2021/10/21 07:05:56;;;;;;;26.33;16.85;;;;;;;;;;5086871;28;20051;-62
2021/10/21 07:08:23;;;;;;;25.15;13.23;;;;;;;;;;5074088;28;20429;-61
2021/10/21 07:10:48;;;;;;;22.92;13.00;;;;;;;;;;5095608;28;20110;-62
2021/10/21 07:13:14;;;;;;;22.63;12.83;;;;;;;;;;5082130;28;20755;-62
2021/10/21 07:15:39;;;;;;;23.88;13.77;;;;;;;;;;5104995;28;20047;-62
2021/10/21 07:18:04;;;;;;;23.00;12.50;;;;;;;;;;5099054;28;20465;-63
2021/10/21 07:20:30;;;;;;;26.15;15.50;;;;;;;;;;5078872;28;20512;-62
2021/10/21 07:22:55;;;;;;;28.40;21.10;;;;;;;;;;5101523;28;20028;-63
2021/10/21 07:25:22;;;;;;;141.53;93.40;;;;;;;;;;5089403;28;20107;-62
2021/10/21 07:27:47;;;;;;;259.77;155.38;;;;;;;;;;5088643;28;20347;-62
2021/10/21 07:30:13;;;;;;;282.88;156.48;;;;;;;;;;5068223;28;20048;-62
2021/10/21 07:32:38;;;;;;;53.25;43.58;;;;;;;;;;5086718;28;20020;-62
2021/10/21 07:35:04;;;;;;;26.73;21.55;;;;;;;;;;5089693;28;20472;-62
2021/10/21 07:37:30;;;;;;;30.98;26.60;;;;;;;;;;5087670;28;20113;-62
2021/10/21 07:39:55;;;;;;;380.10;214.80;;;;;;;;;;5092192;28;20027;-62
2021/10/21 07:42:21;;;;;;;175.20;111.57;;;;;;;;;;5092585;28;20047;-62
2021/10/21 07:44:47;;;;;;;234.77;139.60;;;;;;;;;;5075658;28;20277;-63
2021/10/21 07:47:12;;;;;;;396.02;243.90;;;;;;;;;;5093616;28;20050;-62
2021/10/21 07:49:38;;;;;;;324.65;212.77;;;;;;;;;;5092572;28;20577;-62
2021/10/21 07:52:04;;;;;;;630.90;484.17;;;;;;;;;;5091628;28;20035;-63
2021/10/21 07:54:30;;;;;;;460.02;286.75;;;;;;;;;;5087065;28;20413;-64
2021/10/21 07:57:01;;;;;;;299.48;169.20;;;;;;;;;;5088083;28;20020;-64
2021/10/21 07:59:26;;;;;;;168.00;111.28;;;;;;;;;;5088577;28;20027;-61
2021/10/21 08:01:52;;;;;;;161.75;108.13;;;;;;;;;;5088596;28;20069;-62
2021/10/21 08:04:18;;;;;;;145.27;101.20;;;;;;;;;;5070158;28;20023;-62
2021/10/21 08:06:43;;;;;;;224.98;137.55;;;;;;;;;;5088574;28;20401;-62
2021/10/21 08:09:08;;;;;;;698.90;523.28;;;;;;;;;;5087724;28;20563;-61
2021/10/21 08:11:34;;;;;;;351.85;201.77;;;;;;;;;;5093827;28;20020;-61
2021/10/21 08:13:59;;;;;;;202.88;125.10;;;;;;;;;;5089884;28;20499;-62
2021/10/21 08:16:25;;;;;;;285.57;159.40;;;;;;;;;;5089346;28;20016;-62
2021/10/21 08:18:50;;;;;;;351.40;189.65;;;;;;;;;;5089562;28;20019;-61
2021/10/21 08:21:16;;;;;;;316.02;170.02;;;;;;;;;;5090071;28;20043;-61
2021/10/21 08:23:41;;;;;;;287.42;159.20;;;;;;;;;;5091816;28;20413;-62
2021/10/21 08:26:07;;;;;;;269.13;149.23;;;;;;;;;;5086847;28;20036;-60
2021/10/21 08:28:32;;;;;;;258.00;143.10;;;;;;;;;;5087971;28;20111;-62
2021/10/21 08:30:57;;;;;;;238.80;135.17;;;;;;;;;;5064223;28;20032;-62
2021/10/21 08:33:23;;;;;;;251.63;140.30;;;;;;;;;;5065743;28;20759;-64
2021/10/21 08:35:48;;;;;;;279.55;154.00;;;;;;;;;;5066922;28;20036;-62
2021/10/21 08:38:13;;;;;;;212.50;126.10;;;;;;;;;;5066277;28;20497;-62
2021/10/21 08:40:39;;;;;;;263.33;145.90;;;;;;;;;;5070915;28;20242;-62
2021/10/21 08:43:04;;;;;;;307.88;167.15;;;;;;;;;;5068857;28;20040;-62
2021/10/21 08:45:30;;;;;;;306.60;166.80;;;;;;;;;;5068810;28;20383;-62
2021/10/21 08:48:01;;;;;;;312.92;170.05;;;;;;;;;;5066294;28;20032;-62
2021/10/21 08:50:27;;;;;;;399.27;228.98;;;;;;;;;;5067719;28;20032;-62
2021/10/21 08:52:52;;;;;;;398.88;227.32;;;;;;;;;;5067406;28;20016;-62
2021/10/21 08:55:17;;;;;;;416.80;248.13;;;;;;;;;;5066023;28;20028;-62
2021/10/21 08:57:43;;;;;;;453.58;275.23;;;;;;;;;;5068754;28;20322;-63
2021/10/21 09:00:08;;;;;;;394.00;226.93;;;;;;;;;;5067638;28;20115;-63
2021/10/21 09:05:23;;;;;;;455.85;285.17;;;;;;;;;;5069944;28;20926;-63
2021/10/21 09:08:22;;;;;;;503.77;328.90;;;;;;;;;;5069715;28;20696;-63
2021/10/21 09:10:53;;;;;;;422.80;253.68;;;;;;;;;;5030288;28;20805;-61
2021/10/21 09:13:26;;;;;;;435.42;265.73;;;;;;;;;;5069166;28;20028;-61
2021/10/21 09:15:54;;;;;;;460.77;293.67;;;;;;;;;;5079030;28;22138;-61
2021/10/21 09:18:19;;;;;;;456.42;287.33;;;;;;;;;;5082662;28;20050;-61
2021/10/21 09:20:46;;;;;;;576.47;403.60;;;;;;;;;;4985595;28;20504;-62
2021/10/21 09:23:12;;;;;;;959.10;853.05;;;;;;;;;;5039571;28;20013;-61
2021/10/21 09:25:38;;;;;;;647.92;514.83;;;;;;;;;;5030772;28;20087;-61
2021/10/21 09:28:15;;;;;;;1211.00;999.90;;;;;;;;;;5024052;28;20021;-61
2021/10/21 09:30:47;;;;;;;1184.93;999.90;;;;;;;;;;5038175;28;20051;-61
2021/10/21 09:33:13;;;;;;;1100.45;981.30;;;;;;;;;;5049150;28;20119;-61
2021/10/21 09:35:38;;;;;;;1200.13;999.90;;;;;;;;;;5059602;28;20017;-61
2021/10/21 09:38:04;;;;;;;1297.88;999.90;;;;;;;;;;5061696;28;20024;-61
2021/10/21 09:40:30;;;;;;;1211.30;999.90;;;;;;;;;;5036871;28;20566;-61
2021/10/21 09:42:59;;;;;;;1179.07;999.90;;;;;;;;;;5056507;28;20024;-61
2021/10/21 09:45:26;;;;;;;1021.10;915.07;;;;;;;;;;5060654;28;20139;-61
2021/10/21 09:47:58;;;;;;;845.70;755.92;;;;;;;;;;5033947;28;20263;-61
2021/10/21 09:50:39;;;;;;;857.25;762.63;;;;;;;;;;5052368;28;20035;-61
2021/10/21 09:53:14;;;;;;;926.63;829.38;;;;;;;;;;5049467;28;20050;-61
2021/10/21 09:55:42;;;;;;;1014.55;908.58;;;;;;;;;;5057408;28;20019;-61
2021/10/21 09:58:09;;;;;;;956.53;857.13;;;;;;;;;;5062011;28;20057;-62
2021/10/21 10:00:35;;;;;;;821.58;732.20;;;;;;;;;;5056168;28;20029;-61
2021/10/21 10:03:17;;;;;;;875.38;782.70;;;;;;;;;;5062143;28;20012;-62
2021/10/21 10:05:43;;;;;;;921.38;825.47;;;;;;;;;;5058313;28;20052;-61
2021/10/21 10:08:09;;;;;;;965.30;865.42;;;;;;;;;;5055105;28;20049;-61
2021/10/21 10:10:35;;;;;;;1199.15;999.90;;;;;;;;;;5054099;28;20027;-60
2021/10/21 10:13:00;;;;;;;1205.45;999.90;;;;;;;;;;5058318;28;20016;-65
2021/10/21 10:15:26;;;;;;;1219.00;999.90;;;;;;;;;;5050481;28;20077;-62
2021/10/21 10:17:51;;;;;;;854.83;763.57;;;;;;;;;;5062694;28;20013;-63
2021/10/21 10:20:22;;;;;;;875.67;781.73;;;;;;;;;;5060151;28;20271;-64
2021/10/21 10:22:48;;;;;;;784.75;691.78;;;;;;;;;;5063900;28;20640;-63
2021/10/21 10:25:19;;;;;;;902.13;805.73;;;;;;;;;;5063519;28;20028;-63
2021/10/21 10:27:54;;;;;;;819.17;729.78;;;;;;;;;;5045274;28;20055;-64
2021/10/21 10:30:38;;;;;;;900.30;804.65;;;;;;;;;;5063962;28;20751;-63
2021/10/21 10:33:03;;;;;;;1083.93;968.45;;;;;;;;;;5060314;28;20016;-62
2021/10/21 10:35:32;;;;;;;770.13;666.60;;;;;;;;;;5042106;28;20561;-63
2021/10/21 10:37:58;;;;;;;705.70;575.72;;;;;;;;;;5060170;28;20846;-62
2021/10/21 10:40:36;;;;;;;644.53;490.27;;;;;;;;;;5055752;28;20107;-62
2021/10/21 10:43:01;;;;;;;721.38;594.47;;;;;;;;;;5061633;28;20572;-64
2021/10/21 10:45:46;;;;;;;980.80;877.90;;;;;;;;;;5061107;28;20033;-63
2021/10/21 10:48:11;;;;;;;478.45;300.08;;;;;;;;;;5045972;28;20174;-63
2021/10/21 10:50:42;;;;;;;493.40;317.33;;;;;;;;;;5065437;28;20109;-63
2021/10/21 10:53:08;;;;;;;511.02;331.63;;;;;;;;;;5054204;28;20337;-63
2021/10/21 10:55:33;;;;;;;522.58;341.90;;;;;;;;;;5051754;28;20107;-62
2021/10/21 10:57:59;;;;;;;553.95;373.95;;;;;;;;;;5057793;28;20031;-62
2021/10/21 11:00:40;;;;;;;586.10;411.08;;;;;;;;;;5063410;28;20534;-62
2021/10/21 11:03:06;;;;;;;665.97;517.33;;;;;;;;;;5051524;28;20628;-62
2021/10/21 11:05:46;;;;;;;623.63;459.80;;;;;;;;;;5043679;28;20020;-62
2021/10/21 11:08:12;;;;;;;564.42;380.60;;;;;;;;;;5064732;28;20506;-62
2021/10/21 11:10:38;;;;;;;672.58;524.05;;;;;;;;;;5045141;28;20058;-62
2021/10/21 11:13:22;;;;;;;797.67;687.72;;;;;;;;;;5054852;28;20081;-61
2021/10/21 11:15:47;;;;;;;856.85;763.28;;;;;;;;;;5062883;28;20039;-62
2021/10/21 11:18:23;;;;;;;519.90;339.58;;;;;;;;;;5064558;28;20036;-62
2021/10/21 11:20:48;;;;;;;502.38;323.95;;;;;;;;;;5044998;28;20036;-61
2021/10/21 11:23:40;;;;;;;496.35;317.55;;;;;;;;;;5058887;28;20024;-62
2021/10/21 11:26:06;;;;;;;500.67;319.92;;;;;;;;;;5051257;28;20068;-63
2021/10/21 11:28:33;;;;;;;493.75;315.75;;;;;;;;;;5052278;28;20433;-62
2021/10/21 11:30:58;;;;;;;497.45;318.08;;;;;;;;;;5055910;28;20051;-62
2021/10/21 11:33:23;;;;;;;516.58;336.55;;;;;;;;;;5052518;28;20131;-62
2021/10/21 11:35:51;;;;;;;508.70;329.55;;;;;;;;;;5057061;28;20525;-62
2021/10/21 11:38:17;;;;;;;519.58;340.30;;;;;;;;;;5063477;28;20059;-61
2021/10/21 11:40:43;;;;;;;532.72;352.80;;;;;;;;;;5067592;28;20658;-61
2021/10/21 11:43:08;;;;;;;523.00;342.00;;;;;;;;;;5064255;28;20032;-62
2021/10/21 11:45:35;;;;;;;531.40;350.70;;;;;;;;;;5062041;28;20028;-63
2021/10/21 11:48:01;;;;;;;549.30;367.38;;;;;;;;;;5065127;28;20047;-62
2021/10/21 11:50:40;;;;;;;567.85;396.67;;;;;;;;;;5063213;28;20016;-61
2021/10/21 11:53:06;;;;;;;473.73;299.90;;;;;;;;;;5061781;28;20104;-61
2021/10/21 11:55:31;;;;;;;497.83;321.20;;;;;;;;;;5048751;28;20518;-61
2021/10/21 11:57:57;;;;;;;522.10;344.65;;;;;;;;;;5046476;28;20017;-62
2021/10/21 12:00:23;;;;;;;542.55;364.90;;;;;;;;;;5050633;28;20170;-62
2021/10/21 12:02:53;;;;;;;569.03;393.77;;;;;;;;;;5042469;28;20028;-63
2021/10/21 12:05:40;;;;;;;604.10;442.20;;;;;;;;;;5060955;28;20557;-62
2021/10/21 12:08:05;;;;;;;526.63;351.05;;;;;;;;;;5062561;28;20124;-62
2021/10/21 12:10:32;;;;;;;522.30;345.65;;;;;;;;;;5062950;28;20115;-62
2021/10/21 12:12:57;;;;;;;587.92;421.75;;;;;;;;;;5060454;28;20027;-63
2021/10/21 12:15:24;;;;;;;552.78;376.60;;;;;;;;;;5061206;28;20130;-62
2021/10/21 12:17:49;;;;;;;565.97;393.15;;;;;;;;;;5059756;28;20139;-62
2021/10/21 12:20:28;;;;;;;628.03;479.10;;;;;;;;;;5060449;28;20099;-63
2021/10/21 12:22:53;;;;;;;608.30;462.02;;;;;;;;;;5058909;28;20028;-63
2021/10/21 12:25:29;;;;;;;653.63;519.93;;;;;;;;;;5061678;28;20036;-62
2021/10/21 12:27:58;;;;;;;691.60;558.05;;;;;;;;;;5044757;28;20750;-62
2021/10/21 12:30:24;;;;;;;977.13;875.40;;;;;;;;;;5061450;28;20044;-61
2021/10/21 12:32:49;;;;;;;1304.68;999.90;;;;;;;;;;5045293;28;20425;-62
2021/10/21 12:35:14;;;;;;;1125.47;997.07;;;;;;;;;;5042908;28;20028;-62
2021/10/21 12:37:40;;;;;;;700.10;616.17;;;;;;;;;;5046716;28;20012;-62
2021/10/21 12:40:21;;;;;;;872.03;775.20;;;;;;;;;;5059633;28;20709;-62
2021/10/21 12:42:47;;;;;;;768.03;684.05;;;;;;;;;;5059660;28;20471;-62
2021/10/21 12:45:12;;;;;;;511.88;336.75;;;;;;;;;;5060192;28;20036;-62
2021/10/21 12:47:37;;;;;;;515.50;340.30;;;;;;;;;;5043863;28;20468;-62
2021/10/21 12:50:03;;;;;;;512.58;337.90;;;;;;;;;;5061898;28;20803;-61
2021/10/21 12:52:32;;;;;;;522.67;356.70;;;;;;;;;;5062263;28;20017;-62
2021/10/21 12:55:16;;;;;;;790.08;700.45;;;;;;;;;;5062256;28;20707;-61
2021/10/21 12:58:04;;;;;;;960.25;854.92;;;;;;;;;;5061898;28;20021;-62
2021/10/21 13:00:39;;;;;;;558.25;378.75;;;;;;;;;;5062385;28;20056;-62
2021/10/21 13:03:06;;;;;;;475.67;295.40;;;;;;;;;;5062540;28;20040;-62
2021/10/21 13:05:31;;;;;;;485.25;302.15;;;;;;;;;;5040705;28;20088;-62
2021/10/21 13:07:57;;;;;;;521.47;341.30;;;;;;;;;;5060238;28;20009;-61
2021/10/21 13:10:23;;;;;;;488.75;309.30;;;;;;;;;;5043423;28;20279;-62
2021/10/21 13:12:48;;;;;;;534.13;350.75;;;;;;;;;;5059247;28;20069;-61
2021/10/21 13:15:14;;;;;;;452.63;272.07;;;;;;;;;;5061830;28;20066;-62
2021/10/21 13:17:39;;;;;;;488.80;305.92;;;;;;;;;;5061657;28;20008;-61
2021/10/21 13:20:04;;;;;;;413.07;236.57;;;;;;;;;;5062733;28;20096;-61
2021/10/21 13:22:30;;;;;;;404.63;226.90;;;;;;;;;;5059284;28;20266;-62
2021/10/21 13:24:55;;;;;;;390.83;216.97;;;;;;;;;;5060557;28;20470;-62
2021/10/21 13:27:20;;;;;;;421.17;243.77;;;;;;;;;;5062285;28;20865;-62
2021/10/21 13:29:45;;;;;;;424.38;244.90;;;;;;;;;;5058393;28;20282;-62
2021/10/21 13:32:11;;;;;;;456.10;274.33;;;;;;;;;;5061897;28;20055;-62
2021/10/21 13:34:36;;;;;;;418.52;240.30;;;;;;;;;;5057888;28;20021;-62
2021/10/21 13:37:01;;;;;;;412.53;232.13;;;;;;;;;;5061210;28;20020;-62
2021/10/21 13:39:27;;;;;;;444.95;264.38;;;;;;;;;;5060274;28;20024;-62
2021/10/21 13:41:52;;;;;;;452.17;268.92;;;;;;;;;;5061010;28;20078;-62
2021/10/21 13:44:18;;;;;;;436.65;255.77;;;;;;;;;;5059302;28;20082;-62
2021/10/21 13:46:43;;;;;;;393.88;216.60;;;;;;;;;;5061345;28;20039;-62
2021/10/21 13:49:10;;;;;;;440.53;258.87;;;;;;;;;;5044275;28;20020;-62
2021/10/21 13:51:35;;;;;;;512.78;328.05;;;;;;;;;;5061252;28;20875;-62
2021/10/21 13:54:00;;;;;;;514.40;330.47;;;;;;;;;;5063899;28;20008;-63
2021/10/21 13:56:27;;;;;;;321.45;173.82;;;;;;;;;;5066099;28;20066;-62
2021/10/21 13:58:52;;;;;;;370.15;200.65;;;;;;;;;;5063425;28;20083;-61
2021/10/21 14:01:23;;;;;;;371.57;201.30;;;;;;;;;;5063486;28;20012;-62
2021/10/21 14:03:48;;;;;;;282.42;152.00;;;;;;;;;;5062270;28;20297;-62
2021/10/21 14:06:17;;;;;;;307.87;165.73;;;;;;;;;;5062659;28;20040;-62
2021/10/21 14:08:42;;;;;;;352.08;187.73;;;;;;;;;;5066272;28;20194;-62
2021/10/21 14:11:08;;;;;;;364.13;196.20;;;;;;;;;;5063491;28;20115;-62
2021/10/21 14:13:34;;;;;;;380.35;208.05;;;;;;;;;;5065341;28;20040;-62